Time;durP1;ratioP1;P1;durP2;ratioP2;P2;SDS_P1;SDS_P2;PMS_P1;PMS_P2;Temp;Humidity;BMP_temperature;BMP_pressure;BME280_temperature;BME280_humidity;BME280_pressure;Samples;Min_cycle;Max_cycle;Signal;HPM_P1;HPM_P2
2021/04/16 00:00:21;;;;;;;11.02;5.20;;;;;;;;;;5095982;28;20238;-58
2021/04/16 00:02:48;;;;;;;6.95;4.72;;;;;;;;;;5096187;28;20205;-50
2021/04/16 00:05:15;;;;;;;10.63;4.47;;;;;;;;;;5105468;28;20225;-53
2021/04/16 00:07:42;;;;;;;10.65;5.05;;;;;;;;;;5115122;28;20212;-56
2021/04/16 00:10:09;;;;;;;8.98;4.75;;;;;;;;;;5116002;28;20204;-55
2021/04/16 00:12:37;;;;;;;9.40;4.97;;;;;;;;;;5116404;28;20257;-53
2021/04/16 00:15:05;;;;;;;9.63;5.13;;;;;;;;;;5116512;28;20208;-55
2021/04/16 00:17:33;;;;;;;8.95;5.10;;;;;;;;;;5099689;28;20256;-51
2021/04/16 00:19:59;;;;;;;7.28;5.15;;;;;;;;;;5095899;28;20234;-51
2021/04/16 00:22:29;;;;;;;11.73;5.43;;;;;;;;;;5095502;28;20216;-50
2021/04/16 00:25:09;;;;;;;15.00;5.38;;;;;;;;;;5096960;28;20198;-53
2021/04/16 00:27:35;;;;;;;7.03;4.45;;;;;;;;;;5096028;28;20205;-52
2021/04/16 00:30:04;;;;;;;11.63;5.50;;;;;;;;;;5095600;28;20251;-56
2021/04/16 00:35:35;;;;;;;11.77;5.30;;;;;;;;;;5095869;28;20177;-55
2021/04/16 00:38:02;;;;;;;9.38;5.47;;;;;;;;;;5095666;28;20258;-52
2021/04/16 00:40:55;;;;;;;19.70;10.25;;;;;;;;;;5095717;28;20277;-54
2021/04/16 00:43:22;;;;;;;11.88;6.35;;;;;;;;;;5095618;28;20190;-57
2021/04/16 00:45:50;;;;;;;10.77;5.03;;;;;;;;;;5095754;28;20181;-54
2021/04/16 00:48:27;;;;;;;10.55;6.00;;;;;;;;;;5096739;28;20206;-56
2021/04/16 00:50:54;;;;;;;11.23;5.80;;;;;;;;;;5091558;28;20206;-54
2021/04/16 00:53:23;;;;;;;18.92;5.78;;;;;;;;;;5091116;28;20672;-52
2021/04/16 00:56:21;;;;;;;9.00;5.50;;;;;;;;;;5087946;28;20210;-53
2021/04/16 00:58:48;;;;;;;7.50;5.32;;;;;;;;;;5088328;28;20729;-54
2021/04/16 01:01:16;;;;;;;14.00;4.78;;;;;;;;;;5094810;28;20198;-53
2021/04/16 01:04:01;;;;;;;13.00;6.50;;;;;;;;;;5075706;28;20249;-51
2021/04/16 01:06:28;;;;;;;11.18;5.05;;;;;;;;;;5082833;28;20220;-50
2021/04/16 01:08:57;;;;;;;13.15;6.07;;;;;;;;;;5094943;28;20202;-54
2021/04/16 01:11:28;;;;;;;7.82;4.82;;;;;;;;;;5090275;28;20213;-49
2021/04/16 01:13:56;;;;;;;10.00;5.50;;;;;;;;;;5095203;28;20277;-55
2021/04/16 01:16:29;;;;;;;7.78;4.40;;;;;;;;;;5094963;28;20228;-50
2021/04/16 01:19:07;;;;;;;10.30;4.90;;;;;;;;;;5095577;28;20222;-50
2021/04/16 01:21:36;;;;;;;8.73;5.70;;;;;;;;;;5093355;28;20255;-57
2021/04/16 01:24:06;;;;;;;10.18;5.13;;;;;;;;;;5095353;28;20210;-51
2021/04/16 01:26:41;;;;;;;8.05;4.80;;;;;;;;;;5094565;28;20205;-53
2021/04/16 01:29:08;;;;;;;11.05;6.28;;;;;;;;;;5075376;28;20219;-56
2021/04/16 01:31:35;;;;;;;9.18;5.55;;;;;;;;;;5075407;28;20207;-53
2021/04/16 01:34:23;;;;;;;9.90;5.15;;;;;;;;;;5075089;28;20470;-54
2021/04/16 01:36:51;;;;;;;12.45;6.07;;;;;;;;;;5074855;28;20206;-54
2021/04/16 01:39:18;;;;;;;8.63;5.55;;;;;;;;;;5075038;28;20241;-55
2021/04/16 01:41:51;;;;;;;13.45;5.35;;;;;;;;;;5075012;28;20194;-52
2021/04/16 01:44:19;;;;;;;9.85;5.95;;;;;;;;;;5074511;28;20198;-53
2021/04/16 01:46:50;;;;;;;8.05;5.28;;;;;;;;;;5075175;28;20194;-49
2021/04/16 01:49:23;;;;;;;10.80;4.88;;;;;;;;;;5086599;28;20233;-50
2021/04/16 01:51:51;;;;;;;7.53;4.68;;;;;;;;;;5095013;28;20205;-53
2021/04/16 01:54:28;;;;;;;8.75;4.80;;;;;;;;;;5095150;28;20210;-56
2021/04/16 01:57:11;;;;;;;14.45;5.47;;;;;;;;;;5094404;28;20213;-52
2021/04/16 01:59:39;;;;;;;8.93;4.95;;;;;;;;;;5093542;28;20244;-53
2021/04/16 02:02:09;;;;;;;8.25;5.50;;;;;;;;;;5095693;28;20265;-58
2021/04/16 02:04:37;;;;;;;6.80;4.45;;;;;;;;;;5094058;28;20217;-50
2021/04/16 02:07:13;;;;;;;8.32;5.40;;;;;;;;;;5083999;28;20227;-53
2021/04/16 02:09:40;;;;;;;10.30;5.32;;;;;;;;;;5056172;28;20250;-56
2021/04/16 02:12:37;;;;;;;9.40;4.47;;;;;;;;;;5058858;28;20184;-56
2021/04/16 02:15:06;;;;;;;9.02;5.57;;;;;;;;;;5058255;28;20215;-52
2021/04/16 02:17:33;;;;;;;7.97;4.57;;;;;;;;;;5056590;28;20204;-51
2021/04/16 02:20:20;;;;;;;8.90;5.05;;;;;;;;;;5040082;28;20223;-47
2021/04/16 02:22:47;;;;;;;10.40;5.63;;;;;;;;;;5056064;28;20195;-53
2021/04/16 02:25:14;;;;;;;13.30;6.75;;;;;;;;;;5058074;28;20207;-48
2021/04/16 02:27:41;;;;;;;6.88;5.13;;;;;;;;;;5058213;28;20207;-49
2021/04/16 02:30:10;;;;;;;11.80;5.43;;;;;;;;;;5058213;28;20504;-46
2021/04/16 02:32:44;;;;;;;10.60;4.68;;;;;;;;;;5057845;28;20215;-54
2021/04/16 02:35:11;;;;;;;13.63;5.57;;;;;;;;;;5058017;28;20199;-53
2021/04/16 02:37:39;;;;;;;9.07;4.95;;;;;;;;;;5057317;28;20215;-46
2021/04/16 02:40:07;;;;;;;12.25;4.95;;;;;;;;;;5058115;28;20238;-55
2021/04/16 02:42:33;;;;;;;9.13;5.03;;;;;;;;;;5058260;28;20199;-51
2021/04/16 02:45:05;;;;;;;10.15;5.43;;;;;;;;;;5058286;28;20194;-48
2021/04/16 02:47:32;;;;;;;15.32;5.32;;;;;;;;;;5057468;28;20275;-57
2021/04/16 02:49:59;;;;;;;8.10;5.50;;;;;;;;;;5058014;28;20199;-54
2021/04/16 02:52:26;;;;;;;6.68;4.40;;;;;;;;;;5057453;28;20245;-53
2021/04/16 02:54:54;;;;;;;10.73;5.15;;;;;;;;;;5057232;28;20302;-49
2021/04/16 02:57:21;;;;;;;8.57;5.20;;;;;;;;;;5057439;28;20215;-53
2021/04/16 02:59:57;;;;;;;8.30;5.00;;;;;;;;;;5057101;28;20223;-51
2021/04/16 03:02:23;;;;;;;9.35;5.43;;;;;;;;;;5056973;28;20234;-53
2021/04/16 03:04:51;;;;;;;11.25;5.10;;;;;;;;;;5057433;28;20238;-55
2021/04/16 03:07:46;;;;;;;8.18;5.57;;;;;;;;;;5057870;28;20207;-53
2021/04/16 03:10:14;;;;;;;10.00;6.28;;;;;;;;;;5084977;28;20241;-52
2021/04/16 03:12:41;;;;;;;10.80;7.30;;;;;;;;;;5077032;28;20222;-53
2021/04/16 03:15:09;;;;;;;9.80;5.63;;;;;;;;;;5077014;28;20237;-51
2021/04/16 03:17:39;;;;;;;8.90;5.40;;;;;;;;;;5077126;28;20258;-56
2021/04/16 03:20:10;;;;;;;10.23;6.00;;;;;;;;;;5076820;28;20215;-57
2021/04/16 03:22:37;;;;;;;7.75;5.25;;;;;;;;;;5076200;28;20215;-51
2021/04/16 03:25:11;;;;;;;10.98;5.57;;;;;;;;;;5076882;28;20218;-58
2021/04/16 03:27:45;;;;;;;8.80;6.13;;;;;;;;;;5104561;28;20225;-54
2021/04/16 03:30:14;;;;;;;7.43;5.28;;;;;;;;;;5074317;28;20242;-52
2021/04/16 03:32:42;;;;;;;11.32;6.15;;;;;;;;;;5076995;28;20206;-60
2021/04/16 03:35:11;;;;;;;7.20;4.50;;;;;;;;;;5081723;28;20194;-54
2021/04/16 03:37:38;;;;;;;9.10;4.72;;;;;;;;;;5077414;28;20458;-56
2021/04/16 03:40:06;;;;;;;10.27;5.25;;;;;;;;;;5076792;28;20207;-52
2021/04/16 03:42:32;;;;;;;8.13;4.50;;;;;;;;;;5076615;28;20214;-51
2021/04/16 03:44:59;;;;;;;7.88;4.07;;;;;;;;;;5077011;28;20218;-57
2021/04/16 03:50:32;;;;;;;10.02;4.80;;;;;;;;;;5085824;28;20203;-58
2021/04/16 03:53:01;;;;;;;7.70;4.65;;;;;;;;;;5079495;28;20190;-53
2021/04/16 03:56:03;;;;;;;12.95;5.60;;;;;;;;;;5076408;28;20485;-56
2021/04/16 03:58:30;;;;;;;9.15;5.50;;;;;;;;;;5086844;28;20232;-58
2021/04/16 04:00:57;;;;;;;7.78;5.30;;;;;;;;;;5096235;28;20226;-48
2021/04/16 04:03:29;;;;;;;10.43;4.68;;;;;;;;;;5096299;28;20209;-53
2021/04/16 04:05:58;;;;;;;6.35;3.90;;;;;;;;;;5096369;28;20206;-54
2021/04/16 04:08:25;;;;;;;6.35;4.57;;;;;;;;;;5096659;28;20198;-57
2021/04/16 04:10:59;;;;;;;10.30;4.03;;;;;;;;;;5096241;28;20213;-52
2021/04/16 04:13:27;;;;;;;7.00;4.15;;;;;;;;;;5096340;28;20237;-52
2021/04/16 04:15:55;;;;;;;6.80;4.45;;;;;;;;;;5095764;28;20214;-61
2021/04/16 04:18:54;;;;;;;7.25;4.95;;;;;;;;;;5095795;28;20205;-50
2021/04/16 04:21:22;;;;;;;6.25;4.78;;;;;;;;;;5095860;28;20248;-51
2021/04/16 04:23:49;;;;;;;7.40;5.22;;;;;;;;;;5096702;28;20216;-52
2021/04/16 04:26:28;;;;;;;8.43;4.47;;;;;;;;;;5095739;28;20289;-54
2021/04/16 04:29:31;;;;;;;11.52;5.25;;;;;;;;;;5097075;28;20209;-53
2021/04/16 04:35:01;;;;;;;12.82;6.00;;;;;;;;;;5095871;28;20207;-54
2021/04/16 04:37:29;;;;;;;7.88;4.32;;;;;;;;;;5095888;28;20200;-55
2021/04/16 04:39:59;;;;;;;10.93;5.20;;;;;;;;;;5095861;28;20218;-55
2021/04/16 04:42:26;;;;;;;7.57;5.22;;;;;;;;;;5095770;28;20204;-51
2021/04/16 04:44:54;;;;;;;11.77;4.93;;;;;;;;;;5098077;28;20182;-47
2021/04/16 04:47:30;;;;;;;9.43;4.93;;;;;;;;;;5115659;28;20204;-51
2021/04/16 04:49:57;;;;;;;10.02;3.88;;;;;;;;;;5112209;28;20197;-50
2021/04/16 04:52:26;;;;;;;10.90;4.70;;;;;;;;;;5095598;28;20283;-54
2021/04/16 04:54:54;;;;;;;10.65;5.28;;;;;;;;;;5095922;28;20243;-55
2021/04/16 04:57:22;;;;;;;9.80;5.50;;;;;;;;;;5095204;28;20241;-53
2021/04/16 05:00:18;;;;;;;8.63;5.30;;;;;;;;;;5095760;28;20210;-54
2021/04/16 05:02:45;;;;;;;9.25;5.90;;;;;;;;;;5095789;28;20212;-57
2021/04/16 05:05:13;;;;;;;8.25;5.47;;;;;;;;;;5094614;28;20210;-54
2021/04/16 05:07:49;;;;;;;8.93;5.68;;;;;;;;;;5087107;28;20216;-55
2021/04/16 05:10:17;;;;;;;13.20;5.38;;;;;;;;;;5099323;28;20209;-54
2021/04/16 05:12:46;;;;;;;8.93;4.75;;;;;;;;;;5116305;28;20205;-50
2021/04/16 05:15:42;;;;;;;14.93;5.60;;;;;;;;;;5100850;28;20249;-57
2021/04/16 05:18:09;;;;;;;13.02;6.50;;;;;;;;;;5092535;28;20240;-52
2021/04/16 05:20:45;;;;;;;10.23;6.45;;;;;;;;;;5095773;28;20198;-55
2021/04/16 05:23:14;;;;;;;8.90;6.03;;;;;;;;;;5096267;28;20204;-51
2021/04/16 05:25:42;;;;;;;16.77;6.30;;;;;;;;;;5095663;28;20194;-51
2021/04/16 05:28:09;;;;;;;7.78;5.47;;;;;;;;;;5095662;28;20244;-54
2021/04/16 05:33:41;;;;;;;14.77;6.60;;;;;;;;;;5083514;28;20201;-56
2021/04/16 05:36:08;;;;;;;7.88;5.28;;;;;;;;;;5085593;28;20217;-53
2021/04/16 05:38:43;;;;;;;10.63;6.55;;;;;;;;;;5074949;28;20210;-55
2021/04/16 05:41:11;;;;;;;8.48;5.72;;;;;;;;;;5075310;28;20221;-59
2021/04/16 05:43:37;;;;;;;13.60;6.03;;;;;;;;;;5074868;28;20254;-55
2021/04/16 05:46:23;;;;;;;9.10;5.20;;;;;;;;;;5077448;28;20221;-50
2021/04/16 05:48:50;;;;;;;11.10;5.90;;;;;;;;;;5081259;28;20302;-60
2021/04/16 05:51:17;;;;;;;16.70;5.90;;;;;;;;;;5098104;28;20205;-52
2021/04/16 05:56:49;;;;;;;8.20;5.50;;;;;;;;;;5085382;28;20236;-56
2021/04/16 05:59:17;;;;;;;6.07;4.55;;;;;;;;;;5098110;28;20204;-55
2021/04/16 06:02:15;;;;;;;8.75;5.50;;;;;;;;;;5098672;28;20234;-56
2021/04/16 06:04:42;;;;;;;9.15;5.55;;;;;;;;;;5096664;28;20233;-54
2021/04/16 06:07:08;;;;;;;6.85;4.20;;;;;;;;;;5098581;28;20213;-50
2021/04/16 06:09:43;;;;;;;7.38;4.50;;;;;;;;;;5098866;28;20257;-53
2021/04/16 06:12:11;;;;;;;7.28;4.47;;;;;;;;;;5099031;28;20205;-54
2021/04/16 06:14:38;;;;;;;8.70;5.00;;;;;;;;;;5098871;28;20201;-54
2021/04/16 06:20:35;;;;;;;9.80;4.88;;;;;;;;;;5092782;28;20205;-52
2021/04/16 06:23:11;;;;;;;7.63;4.85;;;;;;;;;;5079193;28;20202;-60
2021/04/16 06:25:39;;;;;;;11.82;5.32;;;;;;;;;;5082861;28;20197;-55
2021/04/16 06:28:07;;;;;;;7.70;5.60;;;;;;;;;;5080694;28;20195;-51
2021/04/16 06:30:36;;;;;;;7.72;5.20;;;;;;;;;;5085048;28;20229;-52
2021/04/16 06:33:06;;;;;;;9.23;4.93;;;;;;;;;;5076273;28;20210;-54
2021/04/16 06:35:34;;;;;;;7.10;4.50;;;;;;;;;;5078510;28;20221;-54
2021/04/16 06:38:02;;;;;;;9.88;6.13;;;;;;;;;;5077430;28;20254;-51
2021/04/16 06:40:31;;;;;;;10.20;5.05;;;;;;;;;;5078152;28;20257;-61
2021/04/16 06:42:58;;;;;;;8.52;5.00;;;;;;;;;;5077623;28;20202;-54
2021/04/16 06:45:28;;;;;;;10.07;4.80;;;;;;;;;;5078431;28;20209;-57
2021/04/16 06:48:13;;;;;;;6.93;4.90;;;;;;;;;;5076162;28;20206;-59
2021/04/16 06:50:41;;;;;;;7.43;5.38;;;;;;;;;;5089051;28;20217;-58
2021/04/16 06:53:12;;;;;;;7.80;4.88;;;;;;;;;;5096971;28;20190;-52
2021/04/16 06:58:50;;;;;;;7.20;4.25;;;;;;;;;;5100701;28;20236;-56
2021/04/16 07:01:25;;;;;;;7.93;4.47;;;;;;;;;;5096091;28;20371;-55
2021/04/16 07:04:20;;;;;;;16.50;5.05;;;;;;;;;;5096343;28;20251;-56
2021/04/16 07:06:47;;;;;;;7.55;4.32;;;;;;;;;;5079488;28;20226;-51
2021/04/16 07:09:14;;;;;;;7.82;4.28;;;;;;;;;;5075837;28;20211;-49
2021/04/16 07:11:49;;;;;;;6.32;4.35;;;;;;;;;;5076646;28;20202;-49
2021/04/16 07:14:21;;;;;;;11.52;5.57;;;;;;;;;;5076533;28;20210;-58
2021/04/16 07:16:49;;;;;;;14.15;4.85;;;;;;;;;;5076453;28;20263;-53
2021/04/16 07:19:28;;;;;;;6.93;4.95;;;;;;;;;;5073291;28;20222;-54
2021/04/16 07:22:01;;;;;;;8.18;5.80;;;;;;;;;;5076541;28;20261;-54
2021/04/16 07:24:28;;;;;;;7.60;4.47;;;;;;;;;;5070745;28;20219;-57
2021/04/16 07:27:16;;;;;;;9.15;4.07;;;;;;;;;;5055929;28;20196;-58
2021/04/16 07:29:45;;;;;;;12.15;4.72;;;;;;;;;;5084324;28;20234;-53
2021/04/16 07:32:36;;;;;;;6.68;4.88;;;;;;;;;;5116837;28;20288;-50
2021/04/16 07:35:18;;;;;;;8.23;4.05;;;;;;;;;;5116647;28;20236;-57
2021/04/16 07:37:47;;;;;;;5.63;3.65;;;;;;;;;;5112907;28;20240;-55
2021/04/16 07:40:15;;;;;;;8.93;4.10;;;;;;;;;;5115450;28;20277;-51
2021/04/16 07:42:50;;;;;;;7.38;3.65;;;;;;;;;;5115343;28;20332;-52
2021/04/16 07:45:50;;;;;;;6.43;3.40;;;;;;;;;;5116582;28;20200;-58
2021/04/16 07:48:36;;;;;;;5.90;3.60;;;;;;;;;;5116736;28;20204;-57
2021/04/16 07:51:38;;;;;;;5.03;2.70;;;;;;;;;;5075548;28;20214;-49
2021/04/16 07:54:13;;;;;;;4.38;3.03;;;;;;;;;;5100521;28;20218;-55
2021/04/16 07:56:47;;;;;;;5.77;3.53;;;;;;;;;;5116072;28;20192;-60
2021/04/16 07:59:15;;;;;;;10.18;3.70;;;;;;;;;;5097388;28;20460;-56
2021/04/16 08:01:44;;;;;;;5.45;3.15;;;;;;;;;;5095694;28;20218;-58
2021/04/16 08:04:13;;;;;;;5.70;4.00;;;;;;;;;;5095621;28;20178;-59
2021/04/16 08:07:18;;;;;;;6.17;3.60;;;;;;;;;;5094524;28;20441;-60
2021/04/16 08:09:45;;;;;;;5.40;2.80;;;;;;;;;;5094156;28;20528;-53
2021/04/16 08:12:26;;;;;;;7.00;2.70;;;;;;;;;;5094900;28;20463;-51
2021/04/16 08:15:12;;;;;;;5.60;2.60;;;;;;;;;;5094114;28;20464;-53
2021/04/16 08:17:57;;;;;;;4.57;2.67;;;;;;;;;;5094236;28;20194;-56
2021/04/16 08:20:32;;;;;;;10.15;4.10;;;;;;;;;;5086677;28;20468;-60
2021/04/16 08:23:00;;;;;;;9.90;5.20;;;;;;;;;;5094207;28;20201;-54
2021/04/16 08:25:33;;;;;;;7.32;4.28;;;;;;;;;;5084655;28;20456;-53
2021/04/16 08:28:06;;;;;;;6.80;3.50;;;;;;;;;;5094488;28;20258;-56
2021/04/16 08:31:00;;;;;;;6.97;3.30;;;;;;;;;;5074095;28;20242;-55
2021/04/16 08:33:29;;;;;;;8.07;2.67;;;;;;;;;;5073672;28;20464;-59
2021/04/16 08:36:05;;;;;;;3.77;2.33;;;;;;;;;;5073627;28;20451;-58
2021/04/16 08:41:43;;;;;;;4.93;2.80;;;;;;;;;;5066930;28;20528;-57
2021/04/16 08:44:12;;;;;;;7.00;3.43;;;;;;;;;;5073103;28;20465;-58
2021/04/16 08:46:45;;;;;;;7.60;3.10;;;;;;;;;;5074251;28;20461;-57
2021/04/16 08:49:14;;;;;;;6.33;2.57;;;;;;;;;;5073683;28;20441;-53
2021/04/16 08:51:44;;;;;;;5.50;2.90;;;;;;;;;;5073381;28;20490;-54
2021/04/16 08:54:31;;;;;;;5.10;3.03;;;;;;;;;;5071527;28;20484;-59
2021/04/16 08:57:01;;;;;;;5.47;3.43;;;;;;;;;;5073615;28;20457;-57
2021/04/16 08:59:30;;;;;;;5.23;2.50;;;;;;;;;;5073038;28;20751;-54
2021/04/16 09:02:00;;;;;;;5.43;2.63;;;;;;;;;;5074581;28;20440;-59
2021/04/16 09:04:44;;;;;;;7.57;2.50;;;;;;;;;;5072649;28;20455;-55
2021/04/16 09:10:39;;;;;;;4.83;2.57;;;;;;;;;;5045397;28;20464;-57
2021/04/16 09:13:12;;;;;;;7.43;3.43;;;;;;;;;;5072113;28;20429;-55
2021/04/16 09:15:47;;;;;;;4.00;2.30;;;;;;;;;;5073351;28;20468;-55
2021/04/16 09:18:26;;;;;;;5.60;2.60;;;;;;;;;;5073303;28;20433;-56
2021/04/16 09:21:18;;;;;;;4.27;2.70;;;;;;;;;;5074535;28;20634;-53
2021/04/16 09:23:56;;;;;;;4.33;2.57;;;;;;;;;;5072434;28;20469;-56
2021/04/16 09:27:01;;;;;;;5.27;3.43;;;;;;;;;;5077566;28;20452;-52
2021/04/16 09:29:49;;;;;;;4.60;2.30;;;;;;;;;;5089555;28;20558;-55
2021/04/16 09:32:42;;;;;;;8.30;2.70;;;;;;;;;;5096879;28;20444;-53
2021/04/16 09:35:11;;;;;;;3.43;2.37;;;;;;;;;;5082675;28;20475;-55
2021/04/16 09:37:39;;;;;;;5.47;2.80;;;;;;;;;;5102235;28;20616;-53
2021/04/16 09:40:35;;;;;;;7.27;3.07;;;;;;;;;;5107781;28;20480;-57
2021/04/16 09:43:17;;;;;;;4.57;2.37;;;;;;;;;;5070536;28;20455;-54
2021/04/16 09:48:50;;;;;;;3.80;2.57;;;;;;;;;;5093825;28;20575;-54
2021/04/16 09:51:28;;;;;;;8.83;3.17;;;;;;;;;;5096718;28;20478;-54
2021/04/16 09:54:17;;;;;;;5.93;2.80;;;;;;;;;;5099748;28;20452;-56
2021/04/16 09:56:59;;;;;;;4.93;2.63;;;;;;;;;;5081391;28;20508;-59
2021/04/16 09:59:47;;;;;;;9.23;3.37;;;;;;;;;;5074583;28;20449;-56
2021/04/16 10:02:21;;;;;;;4.30;2.43;;;;;;;;;;5076282;28;21050;-58
2021/04/16 10:04:56;;;;;;;5.20;2.70;;;;;;;;;;5075482;28;20444;-54
2021/04/16 10:07:24;;;;;;;8.00;3.10;;;;;;;;;;5075970;28;20464;-54
2021/04/16 10:09:51;;;;;;;5.30;2.93;;;;;;;;;;5069794;28;20462;-52
2021/04/16 10:12:48;;;;;;;5.93;3.80;;;;;;;;;;5070829;28;20457;-54
2021/04/16 10:15:16;;;;;;;6.90;3.40;;;;;;;;;;5088567;28;20437;-56
2021/04/16 10:17:54;;;;;;;5.50;3.53;;;;;;;;;;5075694;28;20915;-55
2021/04/16 10:20:53;;;;;;;4.93;3.30;;;;;;;;;;5077296;28;20507;-60
2021/04/16 10:23:24;;;;;;;7.20;3.60;;;;;;;;;;5093298;28;20464;-53
2021/04/16 12:38:09;;;;;;;5.07;2.37;;;;;;;;;;5151250;28;20420;-54
2021/04/16 12:40:38;;;;;;;5.57;2.67;;;;;;;;;;5150960;28;20464;-55
2021/04/16 12:43:16;;;;;;;4.83;2.40;;;;;;;;;;5151399;28;20506;-54
2021/04/16 12:46:03;;;;;;;6.20;2.73;;;;;;;;;;5135421;28;20468;-53
2021/04/16 12:48:30;;;;;;;6.50;3.00;;;;;;;;;;5132503;28;20482;-57
2021/04/16 12:50:57;;;;;;;5.50;3.20;;;;;;;;;;5146047;28;20488;-60
2021/04/16 12:53:49;;;;;;;3.10;1.80;;;;;;;;;;5152342;28;20569;-58
2021/04/16 12:56:21;;;;;;;3.50;2.13;;;;;;;;;;5134924;28;20490;-60
2021/04/16 12:58:56;;;;;;;3.27;1.63;;;;;;;;;;5113252;28;20491;-58
2021/04/16 13:01:31;;;;;;;3.90;1.70;;;;;;;;;;5114269;28;20466;-58
2021/04/16 13:04:00;;;;;;;5.43;2.40;;;;;;;;;;5131843;28;20501;-57
2021/04/16 13:06:45;;;;;;;3.30;1.70;;;;;;;;;;5131483;27;20514;-59
2021/04/16 13:09:13;;;;;;;3.03;1.30;;;;;;;;;;5132663;28;20438;-61
2021/04/16 13:11:41;;;;;;;6.07;1.50;;;;;;;;;;5133051;28;20476;-61
2021/04/16 13:14:09;;;;;;;3.70;1.53;;;;;;;;;;5126132;28;20435;-58
2021/04/16 13:16:37;;;;;;;3.47;1.47;;;;;;;;;;5118266;28;20459;-58
2021/04/16 13:19:06;;;;;;;3.30;1.27;;;;;;;;;;5117745;28;20459;-61
2021/04/16 13:21:42;;;;;;;2.80;1.50;;;;;;;;;;5115929;28;20458;-57
2021/04/16 13:24:10;;;;;;;5.07;1.40;;;;;;;;;;5117389;28;20597;-59
2021/04/16 13:26:37;;;;;;;3.23;1.53;;;;;;;;;;5117845;28;20469;-54
2021/04/16 13:29:13;;;;;;;3.23;1.60;;;;;;;;;;5111618;28;20475;-54
2021/04/16 13:31:43;;;;;;;3.00;1.70;;;;;;;;;;5110626;28;20477;-58
2021/04/16 13:34:11;;;;;;;3.90;1.50;;;;;;;;;;5117281;28;20514;-60
2021/04/16 13:36:38;;;;;;;3.40;1.60;;;;;;;;;;5117737;28;20432;-51
2021/04/16 13:39:07;;;;;;;3.37;1.70;;;;;;;;;;5117792;28;20432;-60
2021/04/16 13:41:34;;;;;;;3.27;1.50;;;;;;;;;;5117458;28;20451;-58
2021/04/16 13:44:01;;;;;;;4.00;1.47;;;;;;;;;;5117762;28;20470;-54
2021/04/16 13:46:30;;;;;;;3.73;1.53;;;;;;;;;;5117391;28;20455;-59
2021/04/16 13:48:57;;;;;;;4.83;2.40;;;;;;;;;;5117838;28;20443;-54
2021/04/16 13:51:28;;;;;;;3.00;1.70;;;;;;;;;;5117693;28;20459;-55
2021/04/16 13:53:55;;;;;;;5.27;2.20;;;;;;;;;;5117710;28;20447;-60
2021/04/16 13:56:31;;;;;;;15.30;2.13;;;;;;;;;;5117716;28;20479;-56
2021/04/16 13:59:02;;;;;;;5.27;2.40;;;;;;;;;;5116983;28;20427;-55
2021/04/16 14:01:30;;;;;;;4.70;1.87;;;;;;;;;;5115595;28;20446;-52
2021/04/16 14:04:00;;;;;;;4.27;2.10;;;;;;;;;;5115755;28;20740;-57
2021/04/16 14:06:31;;;;;;;5.70;3.00;;;;;;;;;;5107875;28;20665;-59
2021/04/16 14:09:00;;;;;;;3.03;1.63;;;;;;;;;;5110645;28;20514;-54
2021/04/16 14:11:32;;;;;;;2.80;1.73;;;;;;;;;;5104114;28;20452;-55
2021/04/16 14:14:02;;;;;;;3.67;2.00;;;;;;;;;;5111006;28;20498;-57
2021/04/16 14:16:35;;;;;;;5.60;2.20;;;;;;;;;;5107363;28;20436;-61
2021/04/16 14:19:10;;;;;;;3.63;1.80;;;;;;;;;;5113295;28;20455;-50
2021/04/16 14:21:54;;;;;;;2.73;1.70;;;;;;;;;;5110960;28;20461;-59
2021/04/16 14:25:02;;;;;;;3.27;1.40;;;;;;;;;;5106716;28;20466;-54
2021/04/16 14:27:29;;;;;;;4.57;1.67;;;;;;;;;;5103353;28;20462;-54
2021/04/16 14:29:59;;;;;;;6.57;2.53;;;;;;;;;;5114839;28;20428;-54
2021/04/16 14:32:45;;;;;;;8.93;3.63;;;;;;;;;;5109686;28;20439;-57
2021/04/16 14:35:13;;;;;;;4.10;1.77;;;;;;;;;;5113741;28;20455;-57
2021/04/16 14:37:40;;;;;;;3.20;1.70;;;;;;;;;;5114820;28;20463;-52
2021/04/16 14:40:19;;;;;;;3.67;2.10;;;;;;;;;;5115395;28;20463;-58
2021/04/16 14:42:52;;;;;;;4.37;2.40;;;;;;;;;;5104659;28;20594;-57
2021/04/16 14:45:21;;;;;;;3.70;2.00;;;;;;;;;;5110474;28;20460;-59
2021/04/16 14:48:11;;;;;;;3.77;2.27;;;;;;;;;;5112708;28;20461;-56
2021/04/16 14:50:39;;;;;;;6.10;2.70;;;;;;;;;;5105479;28;20459;-60
2021/04/16 14:53:13;;;;;;;6.43;2.73;;;;;;;;;;5112499;28;20464;-56
2021/04/16 14:55:51;;;;;;;3.90;2.30;;;;;;;;;;5115269;28;20446;-61
2021/04/16 14:58:24;;;;;;;5.93;3.10;;;;;;;;;;5115421;28;20447;-57
2021/04/16 15:00:53;;;;;;;5.30;2.87;;;;;;;;;;5106131;28;20461;-61
2021/04/16 15:03:39;;;;;;;5.90;2.80;;;;;;;;;;5114736;28;20498;-53
2021/04/16 15:06:08;;;;;;;4.50;2.37;;;;;;;;;;5114606;28;20442;-60
2021/04/16 15:08:49;;;;;;;8.00;2.90;;;;;;;;;;5114578;28;20466;-59
2021/04/16 15:11:42;;;;;;;6.20;3.00;;;;;;;;;;5106304;28;20447;-53
2021/04/16 15:14:12;;;;;;;5.50;2.60;;;;;;;;;;5100283;28;20475;-60
2021/04/16 15:17:06;;;;;;;5.43;2.80;;;;;;;;;;5104577;28;20483;-54
2021/04/16 15:19:38;;;;;;;4.53;2.37;;;;;;;;;;5112761;28;20764;-57
2021/04/16 15:22:06;;;;;;;4.50;2.50;;;;;;;;;;5113234;28;20483;-53
2021/04/16 15:32:31;;;;;;;4.00;2.53;;;;;;;;;;5125481;28;20228;-56
2021/04/16 15:46:18;;;;;;;5.90;3.00;;;;;;;;;;5115358;28;20444;-54
2021/04/16 15:49:23;;;;;;;11.10;3.17;;;;;;;;;;5114898;28;20448;-55
2021/04/16 15:51:51;;;;;;;5.50;2.87;;;;;;;;;;5097205;28;20448;-57
2021/04/16 15:54:25;;;;;;;4.77;2.90;;;;;;;;;;5115277;28;20439;-53
2021/04/16 15:56:53;;;;;;;4.43;2.87;;;;;;;;;;5115317;28;20454;-55
2021/04/16 15:59:22;;;;;;;4.67;2.80;;;;;;;;;;5109652;28;20434;-60
2021/04/16 16:01:50;;;;;;;7.37;3.87;;;;;;;;;;5109873;28;20463;-59
2021/04/16 16:04:17;;;;;;;6.97;3.17;;;;;;;;;;5110395;28;20452;-62
2021/04/16 16:06:47;;;;;;;9.93;3.17;;;;;;;;;;5101113;28;20508;-59
2021/04/16 16:09:15;;;;;;;5.47;2.63;;;;;;;;;;5113835;28;20456;-56
2021/04/16 16:11:43;;;;;;;8.60;3.43;;;;;;;;;;5114479;28;20474;-59
2021/04/16 16:14:12;;;;;;;7.17;3.30;;;;;;;;;;5107654;28;20513;-54
2021/04/16 16:17:00;;;;;;;5.40;2.97;;;;;;;;;;5108940;28;20455;-53
2021/04/16 16:19:32;;;;;;;4.63;2.57;;;;;;;;;;5096613;28;20444;-58
2021/04/16 16:21:59;;;;;;;3.87;2.50;;;;;;;;;;5096113;28;20448;-59
2021/04/16 16:24:27;;;;;;;6.80;4.40;;;;;;;;;;5115288;28;20439;-55
2021/04/16 16:26:55;;;;;;;5.57;3.03;;;;;;;;;;5114934;28;20468;-49
2021/04/16 16:29:28;;;;;;;5.17;2.73;;;;;;;;;;5114548;28;20598;-57
2021/04/16 16:32:06;;;;;;;5.57;2.60;;;;;;;;;;5115177;28;20482;-57
2021/04/16 16:34:34;;;;;;;5.03;2.60;;;;;;;;;;5114959;28;20451;-56
2021/04/16 16:37:04;;;;;;;5.70;2.80;;;;;;;;;;5115329;28;20451;-55
2021/04/16 16:39:32;;;;;;;8.50;3.17;;;;;;;;;;5103261;28;20479;-55
2021/04/16 16:42:01;;;;;;;6.73;2.90;;;;;;;;;;5116050;28;20447;-54
2021/04/16 16:44:30;;;;;;;5.90;3.43;;;;;;;;;;5112633;28;20451;-57
2021/04/16 16:47:24;;;;;;;4.20;2.50;;;;;;;;;;5116093;28;20450;-56
2021/04/16 16:49:51;;;;;;;4.90;2.47;;;;;;;;;;5116057;28;20447;-56
2021/04/16 16:52:18;;;;;;;8.57;2.60;;;;;;;;;;5114795;28;20448;-56
2021/04/16 16:55:13;;;;;;;5.57;3.10;;;;;;;;;;5098501;28;20436;-58
2021/04/16 16:57:42;;;;;;;4.37;2.50;;;;;;;;;;5132078;28;20557;-56
2021/04/16 17:05:39;;;;;;;8.13;2.80;;;;;;;;;;5126242;28;20450;-58
2021/04/16 17:08:09;;;;;;;8.97;3.00;;;;;;;;;;5117486;28;20193;-55
2021/04/16 17:10:46;;;;;;;7.10;3.33;;;;;;;;;;5117454;28;20463;-61
2021/04/16 17:13:47;;;;;;;6.83;3.40;;;;;;;;;;5116125;28;20567;-56
2021/04/16 17:16:17;;;;;;;8.30;2.33;;;;;;;;;;5118045;28;20454;-58
2021/04/16 17:18:49;;;;;;;5.10;3.00;;;;;;;;;;5118460;28;20463;-53
2021/04/16 17:21:19;;;;;;;5.77;3.43;;;;;;;;;;5119135;28;20516;-56
2021/04/16 17:23:58;;;;;;;8.47;3.37;;;;;;;;;;5117620;28;20522;-53
2021/04/16 17:26:33;;;;;;;5.20;2.90;;;;;;;;;;5117370;28;20463;-61
2021/04/16 17:29:01;;;;;;;4.33;3.50;;;;;;;;;;5100275;28;20455;-56
2021/04/16 17:31:40;;;;;;;5.63;2.93;;;;;;;;;;5114925;28;20455;-59
2021/04/16 17:34:07;;;;;;;5.37;3.00;;;;;;;;;;5116712;28;20447;-58
2021/04/16 17:36:34;;;;;;;7.33;3.17;;;;;;;;;;5110372;28;20464;-62
2021/04/16 17:39:21;;;;;;;6.73;3.70;;;;;;;;;;5117990;28;20459;-58
2021/04/16 17:41:50;;;;;;;10.73;6.00;;;;;;;;;;5117609;28;20443;-59
2021/04/16 17:44:20;;;;;;;10.67;5.03;;;;;;;;;;5101226;28;20612;-56
2021/04/16 17:46:48;;;;;;;9.23;4.87;;;;;;;;;;5117463;28;20466;-59
2021/04/16 17:49:15;;;;;;;11.27;4.37;;;;;;;;;;5118153;28;20510;-52
2021/04/16 17:51:42;;;;;;;9.27;4.40;;;;;;;;;;5111363;28;20467;-55
2021/04/16 17:54:10;;;;;;;15.43;4.37;;;;;;;;;;5107389;28;20448;-58
2021/04/16 17:56:37;;;;;;;6.07;3.73;;;;;;;;;;5108160;28;20448;-56
2021/04/16 17:59:05;;;;;;;4.67;2.73;;;;;;;;;;5105602;28;20475;-56
2021/04/16 18:01:39;;;;;;;4.80;2.70;;;;;;;;;;5111231;28;20453;-54
2021/04/16 18:04:16;;;;;;;5.20;2.97;;;;;;;;;;5117311;28;20475;-59
2021/04/16 18:06:53;;;;;;;5.70;3.20;;;;;;;;;;5098290;28;20502;-55
2021/04/16 18:09:29;;;;;;;5.83;3.10;;;;;;;;;;5080423;28;20570;-59
2021/04/16 18:12:00;;;;;;;5.60;3.13;;;;;;;;;;5083256;28;20460;-54
2021/04/16 18:14:27;;;;;;;6.23;3.40;;;;;;;;;;5086909;28;20843;-59
2021/04/16 18:16:56;;;;;;;6.23;3.20;;;;;;;;;;5081408;28;20451;-54
2021/04/16 18:19:26;;;;;;;4.97;3.27;;;;;;;;;;5085949;28;20870;-57
2021/04/16 18:21:54;;;;;;;6.63;3.50;;;;;;;;;;5096689;28;20467;-53
2021/04/16 18:24:56;;;;;;;6.73;3.60;;;;;;;;;;5076549;28;20514;-58